.
WxDataArchive / Data Records for 2007-01-25
2007-01-24 January 2007 2007-01-26

Data Records for Thursday, 25 January 2007

Time	Temp	Chill	HIndex	Humid	Dewpt	 Wind 	HiWind	WindDir	Rain 	Barom 
-----	----	-----	------	-----	-----	------	------	-------	-----	----- 
00:00	24.1	24.1	24.1	81	19.1	2	6	270	0.00	30.070 
00:05	24.1	24.1	24.1	81	19.1	2	7	248	0.00	30.071 
00:10	24.1	24.1	24.1	81	19.1	2	6	248	0.00	30.070 
00:15	23.9	23.9	23.9	81	18.9	1	3	248	0.00	30.070 
00:20	23.9	23.9	23.9	81	18.9	2	4	248	0.00	30.069 
00:25	23.9	23.9	23.9	81	18.9	2	5	270	0.00	30.067 
00:30	23.8	23.8	23.8	82	19.1	2	4	248	0.00	30.064 
00:35	23.8	23.8	23.8	82	19.1	2	4	270	0.00	30.061 
00:40	23.8	23.8	23.8	82	19.1	2	9	248	0.00	30.060 
00:45	23.8	23.8	23.8	82	19.1	1	4	248	0.00	30.057 
00:50	23.8	23.8	23.8	82	19.1	2	7	270	0.00	30.057 
00:55	23.8	23.8	23.8	82	19.1	2	5	248	0.00	30.056 
01:00	23.8	23.8	23.8	82	19.1	2	5	248	0.00	30.055 
01:05	23.8	23.8	23.8	82	19.1	3	9	248	0.00	30.053 
01:10	23.6	23.6	23.6	83	19.2	2	10	270	0.00	30.051 
01:15	23.6	23.6	23.6	83	19.2	2	6	270	0.00	30.051 
01:20	23.6	23.6	23.6	83	19.2	2	5	248	0.00	30.049 
01:25	23.6	23.6	23.6	83	19.2	2	9	248	0.00	30.044 
01:30	23.6	23.6	23.6	84	19.5	1	5	270	0.00	30.044 
01:35	23.6	23.6	23.6	84	19.5	2	5	248	0.00	30.044 
01:40	23.6	23.6	23.6	84	19.5	2	7	248	0.00	30.043 
01:45	23.6	23.6	23.6	84	19.5	2	6	248	0.00	30.042 
01:50	23.6	23.6	23.6	84	19.5	2	9	270	0.00	30.041 
01:55	23.6	23.6	23.6	84	19.5	2	5	270	0.00	30.041 
02:00	23.6	23.6	23.6	84	19.5	1	5	270	0.00	30.041 
02:05	23.6	23.6	23.6	84	19.5	2	6	248	0.00	30.040 
02:10	23.6	23.6	23.6	84	19.5	2	6	248	0.00	30.040 
02:15	23.5	23.5	23.5	84	19.4	2	5	270	0.00	30.041 
02:20	23.5	23.5	23.5	84	19.4	1	3	270	0.00	30.040 
02:25	23.5	23.5	23.5	84	19.4	1	4	248	0.00	30.041 
02:30	23.5	23.5	23.5	84	19.4	2	6	248	0.00	30.042 
02:35	23.6	23.6	23.6	84	19.5	2	5	270	0.00	30.042 
02:40	23.6	23.6	23.6	84	19.5	2	6	248	0.00	30.042 
02:45	23.5	23.5	23.5	84	19.4	1	4	248	0.00	30.042 
02:50	23.5	23.5	23.5	84	19.4	1	4	270	0.00	30.042 
02:55	23.6	23.6	23.6	85	19.8	1	4	248	0.00	30.044 
03:00	23.6	23.6	23.6	85	19.8	1	3	270	0.00	30.044 
03:05	23.6	23.6	23.6	85	19.8	2	6	270	0.00	30.045 
03:10	23.6	23.6	23.6	84	19.5	2	4	270	0.00	30.047 
03:15	23.6	23.6	23.6	85	19.8	1	3	248	0.00	30.046 
03:20	23.6	23.6	23.6	85	19.8	1	3	292	0.00	30.046 
03:25	23.8	23.8	23.8	84	19.7	1	4	270	0.00	30.045 
03:30	23.8	23.8	23.8	85	20.0	2	4	270	0.00	30.046 
03:35	23.8	23.8	23.8	85	20.0	1	4	270	0.00	30.046 
03:40	23.8	23.8	23.8	85	20.0	1	4	270	0.00	30.044 
03:45	23.8	23.8	23.8	85	20.0	1	3	248	0.00	30.044 
03:50	23.8	23.8	23.8	85	20.0	1	2	270	0.00	30.044 
03:55	23.8	23.8	23.8	85	20.0	1	4	270	0.00	30.045 
04:00	23.9	23.9	23.9	85	20.1	1	3	270	0.00	30.045 
04:05	23.9	23.9	23.9	85	20.1	1	3	270	0.00	30.042 
04:10	23.9	23.9	23.9	85	20.1	1	4	270	0.00	30.042 
04:15	24.1	24.1	24.1	85	20.3	1	2	270	0.00	30.042 
04:20	24.1	24.1	24.1	85	20.3	1	4	292	0.00	30.044 
04:25	24.2	24.2	24.2	85	20.4	1	3	270	0.00	30.046 
04:30	24.2	24.2	24.2	85	20.4	1	4	248	0.00	30.047 
04:35	24.4	24.4	24.4	85	20.6	1	4	248	0.00	30.048 
04:40	24.4	24.4	24.4	85	20.6	0	3	248	0.00	30.049 
04:45	24.4	24.4	24.4	85	20.6	1	3	248	0.00	30.051 
04:50	24.4	24.4	24.4	85	20.6	0	2	292	0.00	30.052 
04:55	24.5	24.5	24.5	84	20.4	0	2	315	0.00	30.053 
05:00	24.5	24.5	24.5	82	19.8	0	2	315	0.00	30.054 
05:05	24.5	24.5	24.5	78	18.6	1	5	338	0.00	30.056 
05:10	24.5	24.5	24.5	76	18.0	1	4	338	0.00	30.058 
05:15	24.5	24.5	24.5	76	18.0	0	1	338	0.00	30.063 
05:20	24.5	24.5	24.5	74	17.4	0	2	338	0.00	30.064 
05:25	24.4	24.4	24.4	75	17.6	0	1	0	0.00	30.071 
05:30	24.2	24.2	24.2	74	17.1	1	4	0	0.00	30.074 
05:35	23.9	23.9	23.9	74	16.8	1	6	315	0.00	30.074 
05:40	23.8	23.8	23.8	75	17.1	1	3	292	0.00	30.075 
05:45	23.6	23.6	23.6	75	16.9	1	3	315	0.00	30.076 
05:50	23.6	23.6	23.6	75	16.9	1	2	338	0.00	30.076 
05:55	23.6	23.6	23.6	76	17.2	1	2	0	0.00	30.080 
06:00	23.5	23.5	23.5	76	17.1	1	6	315	0.00	30.080 
06:05	23.5	23.5	23.5	77	17.4	1	4	22	0.00	30.081 
06:10	23.5	23.5	23.5	77	17.4	0	4	292	0.00	30.083 
06:15	23.3	23.3	23.3	77	17.2	0	2	292	0.00	30.083 
06:20	23.2	23.2	23.2	76	16.8	0	1	315	0.00	30.085 
06:25	23.2	23.2	23.2	75	16.5	0	1	315	0.00	30.088 
06:30	23.2	23.2	23.2	74	16.2	0	2	315	0.00	30.091 
06:35	23.0	23.0	23.0	73	15.7	1	4	292	0.00	30.092 
06:40	23.0	23.0	23.0	73	15.7	0	2	338	0.00	30.091 
06:45	22.9	22.9	22.9	72	15.2	0	2	338	0.00	30.092 
06:50	22.7	22.7	22.7	71	14.7	1	3	292	0.00	30.094 
06:55	22.4	22.4	22.4	71	14.4	0	3	315	0.00	30.096 
07:00	22.2	22.2	22.2	70	13.9	1	4	270	0.00	30.100 
07:05	22.1	22.1	22.1	70	13.8	1	3	292	0.00	30.105 
07:10	22.1	22.1	22.1	69	13.5	0	3	292	0.00	30.107 
07:15	22.1	22.1	22.1	69	13.5	1	3	292	0.00	30.108 
07:20	22.1	22.1	22.1	70	13.8	0	1	292	0.00	30.108 
07:25	22.1	22.1	22.1	71	14.2	0	2	315	0.00	30.110 
07:30	22.1	22.1	22.1	70	13.8	0	3	292	0.00	30.111 
07:35	21.9	21.9	21.9	70	13.6	0	3	292	0.00	30.112 
07:40	21.6	21.6	21.6	70	13.4	0	1	292	0.00	30.112 
07:45	21.4	21.4	21.4	71	13.5	0	1	292	0.00	30.112 
07:50	21.3	21.3	21.3	72	13.7	0	2	292	0.00	30.115 
07:55	21.3	21.3	21.3	72	13.7	1	4	315	0.00	30.123 
08:00	21.3	21.3	21.3	72	13.7	1	2	315	0.00	30.125 
08:05	21.1	21.1	21.1	72	13.5	1	3	338	0.00	30.126 
08:10	21.1	21.1	21.1	72	13.5	1	3	338	0.00	30.127 
08:15	21.3	21.3	21.3	72	13.7	0	2	338	0.00	30.131 
08:20	21.3	21.3	21.3	72	13.7	0	2	0	0.00	30.136 
08:25	21.3	21.3	21.3	72	13.7	0	2	0	0.00	30.137 
08:30	21.4	21.4	21.4	72	13.8	0	1	0	0.00	30.138 
08:35	21.4	21.4	21.4	72	13.8	1	3	0	0.00	30.141 
08:40	21.3	21.3	21.3	72	13.7	1	3	338	0.00	30.143 
08:45	21.3	21.3	21.3	70	13.1	1	3	0	0.00	30.144 
08:50	21.3	21.3	21.3	67	12.1	1	4	292	0.00	30.146 
08:55	21.3	21.3	21.3	67	12.1	1	4	338	0.00	30.147 
09:00	21.3	21.3	21.3	67	12.1	1	3	0	0.00	30.148 
09:05	21.3	21.3	21.3	65	11.4	1	5	270	0.00	30.148 
09:10	21.4	21.4	21.4	65	11.5	1	4	270	0.00	30.155 
09:15	21.4	21.4	21.4	64	11.1	1	4	315	0.00	30.155 
09:20	21.6	21.6	21.6	64	11.3	1	3	338	0.00	30.156 
09:25	21.6	21.6	21.6	65	11.7	0	1	0	0.00	30.157 
09:30	21.9	21.9	21.9	65	12.0	1	4	270	0.00	30.158 
09:35	21.9	21.9	21.9	65	12.0	1	3	292	0.00	30.160 
09:40	21.8	21.8	21.8	65	11.9	1	4	338	0.00	30.163 
09:45	21.8	21.8	21.8	66	12.2	1	5	338	0.00	30.167 
09:50	21.8	21.8	21.8	66	12.2	1	3	0	0.00	30.169 
09:55	21.8	21.8	21.8	67	12.6	1	3	338	0.00	30.170 
10:00	21.9	21.9	21.9	68	13.0	0	2	292	0.00	30.170 
10:05	21.9	21.9	21.9	68	13.0	1	7	338	0.00	30.172 
10:10	21.9	21.9	21.9	69	13.3	1	5	292	0.00	30.172 
10:15	21.9	21.9	21.9	69	13.3	1	4	292	0.00	30.172 
10:20	22.1	22.1	22.1	69	13.5	1	2	315	0.00	30.173 
10:25	22.2	22.2	22.2	69	13.6	1	5	338	0.00	30.173 
10:30	22.4	22.4	22.4	69	13.8	1	2	292	0.00	30.172 
10:35	22.5	22.5	22.5	68	13.6	1	3	292	0.00	30.171 
10:40	22.9	22.9	22.9	70	14.6	1	3	248	0.00	30.171 
10:45	23.0	23.0	23.0	70	14.7	1	4	248	0.00	30.170 
10:50	23.2	23.2	23.2	70	14.9	1	4	270	0.00	30.171 
10:55	23.3	23.3	23.3	71	15.3	1	4	270	0.00	30.171 
11:00	23.5	23.5	23.5	71	15.5	1	3	270	0.00	30.172 
11:05	23.3	23.3	23.3	69	14.7	2	4	270	0.00	30.174 
11:10	23.3	23.3	23.3	70	15.0	1	3	315	0.00	30.174 
11:15	23.6	23.6	23.6	70	15.3	2	6	270	0.00	30.171 
11:20	23.9	23.9	23.9	69	15.2	2	6	270	0.00	30.171 
11:25	24.2	24.2	24.2	69	15.5	1	5	270	0.00	30.171 
11:30	24.4	24.4	24.4	67	15.0	2	5	270	0.00	30.171 
11:35	24.5	24.5	24.5	68	15.5	1	3	292	0.00	30.170 
11:40	24.2	24.2	24.2	68	15.2	1	4	338	0.00	30.170 
11:45	23.9	23.9	23.9	68	14.9	2	5	292	0.00	30.167 
11:50	23.9	23.9	23.9	70	15.6	1	4	270	0.00	30.167 
11:55	24.1	24.1	24.1	71	16.1	1	3	338	0.00	30.167 
12:00	24.2	24.2	24.2	71	16.2	1	3	270	0.00	30.165 
12:05	24.2	24.2	24.2	70	15.9	1	4	292	0.00	30.162 
12:10	24.2	24.2	24.2	69	15.5	1	4	292	0.00	30.162 
12:15	24.4	24.4	24.4	66	14.7	2	5	292	0.00	30.159 
12:20	24.7	24.7	24.7	66	15.0	2	4	270	0.00	30.157 
12:25	24.5	24.5	24.5	66	14.8	1	5	315	0.00	30.157 
12:30	24.8	24.8	24.8	66	15.1	2	12	315	0.00	30.157 
12:35	25.3	25.3	25.3	65	15.2	2	4	292	0.00	30.156 
12:40	25.7	25.7	25.7	61	14.1	2	7	338	0.00	30.153 
12:45	25.7	25.7	25.7	62	14.5	3	7	270	0.00	30.153 
12:50	25.4	25.4	25.4	63	14.6	3	7	270	0.00	30.154 
12:55	25.7	25.7	25.7	62	14.5	2	5	338	0.00	30.150 
13:00	25.7	20.8	25.7	61	14.1	4	9	270	0.00	30.151 
13:05	25.7	25.7	25.7	59	13.4	3	9	292	0.00	30.149 
13:10	25.8	25.8	25.8	59	13.5	2	9	315	0.00	30.149 
13:15	25.8	25.8	25.8	59	13.5	3	9	292	0.00	30.145 
13:20	25.7	20.8	25.7	61	14.1	4	10	270	0.00	30.143 
13:25	25.3	25.3	25.3	64	14.9	3	7	315	0.00	30.151 
13:30	24.8	24.8	24.8	69	16.1	3	10	292	0.00	30.149 
13:35	24.5	24.5	24.5	74	17.4	1	5	338	0.00	30.153 
13:40	24.5	24.5	24.5	76	18.0	1	4	315	0.00	30.151 
13:45	24.2	24.2	24.2	76	17.7	1	5	22	0.00	30.149 
13:50	24.5	24.5	24.5	73	17.1	1	3	0	0.00	30.149 
13:55	24.8	24.8	24.8	72	17.1	1	6	338	0.00	30.148 
14:00	24.8	24.8	24.8	70	16.4	2	7	315	0.00	30.150 
14:05	24.4	24.4	24.4	72	16.7	2	6	315	0.00	30.153 
14:10	24.2	24.2	24.2	71	16.2	1	5	0	0.00	30.153 
14:15	24.2	24.2	24.2	69	15.5	2	6	338	0.00	30.153 
14:20	24.5	24.5	24.5	68	15.5	2	6	292	0.00	30.154 
14:25	24.4	24.4	24.4	69	15.7	2	5	338	0.00	30.155 
14:30	24.4	24.4	24.4	69	15.7	3	7	292	0.00	30.155 
14:35	24.2	24.2	24.2	69	15.5	2	6	315	0.00	30.158 
14:40	24.2	24.2	24.2	67	14.8	2	6	338	0.00	30.159 
14:45	24.1	24.1	24.1	65	14.1	2	6	315	0.00	30.161 
14:50	24.2	24.2	24.2	65	14.2	2	6	315	0.00	30.163 
14:55	24.7	24.7	24.7	64	14.3	2	9	315	0.00	30.165 
15:00	25.1	25.1	25.1	63	14.3	3	7	292	0.00	30.166 
15:05	24.7	19.6	24.7	63	13.9	4	10	292	0.00	30.165 
15:10	24.5	24.5	24.5	64	14.1	2	7	292	0.00	30.167 
15:15	24.4	24.4	24.4	65	14.3	3	7	292	0.00	30.169 
15:20	24.2	24.2	24.2	66	14.5	2	7	315	0.00	30.169 
15:25	24.2	24.2	24.2	65	14.2	2	8	292	0.00	30.170 
15:30	23.9	18.7	23.9	64	13.5	4	9	315	0.00	30.169 
15:35	23.9	23.9	23.9	64	13.5	2	9	270	0.00	30.170 
15:40	24.4	24.4	24.4	62	13.3	2	5	270	0.00	30.169 
15:45	24.8	24.8	24.8	62	13.7	2	6	270	0.00	30.167 
15:50	24.7	24.7	24.7	62	13.6	3	9	292	0.00	30.168 
15:55	24.7	24.7	24.7	64	14.3	2	6	338	0.00	30.169 
16:00	25.0	25.0	25.0	65	14.9	2	6	292	0.00	30.167 
16:05	25.0	25.0	25.0	62	13.8	2	5	292	0.00	30.166 
16:10	24.8	24.8	24.8	64	14.4	2	6	315	0.00	30.169 
16:15	24.2	24.2	24.2	69	15.5	2	5	292	0.00	30.171 
16:20	23.8	23.8	23.8	70	15.5	1	4	315	0.00	30.172 
16:25	23.6	23.6	23.6	69	14.9	1	6	0	0.00	30.172 
16:30	23.6	23.6	23.6	67	14.3	1	6	292	0.00	30.173 
16:35	23.8	23.8	23.8	65	13.8	1	7	338	0.00	30.173 
16:40	23.8	23.8	23.8	65	13.8	1	5	315	0.00	30.174 
16:45	23.8	23.8	23.8	65	13.8	2	9	315	0.00	30.177 
16:50	23.6	23.6	23.6	65	13.6	2	6	292	0.00	30.176 
16:55	23.5	23.5	23.5	65	13.5	1	4	292	0.00	30.178 
17:00	23.3	23.3	23.3	65	13.3	1	3	292	0.00	30.179 
17:05	23.5	23.5	23.5	65	13.5	2	4	292	0.00	30.179 
17:10	23.6	23.6	23.6	63	12.9	2	6	315	0.00	30.178 
17:15	23.6	23.6	23.6	62	12.5	2	5	292	0.00	30.180 
17:20	23.6	23.6	23.6	61	12.2	1	4	292	0.00	30.182 
17:25	23.6	23.6	23.6	62	12.5	1	4	338	0.00	30.185 
17:30	23.6	23.6	23.6	61	12.2	1	3	292	0.00	30.184 
17:35	23.8	23.8	23.8	61	12.3	1	4	315	0.00	30.186 
17:40	23.6	23.6	23.6	61	12.2	2	6	315	0.00	30.186 
17:45	23.3	23.3	23.3	61	11.9	1	3	338	0.00	30.188 
17:50	23.2	23.2	23.2	61	11.8	1	3	338	0.00	30.189 
17:55	23.0	23.0	23.0	59	10.8	2	5	292	0.00	30.189 
18:00	22.9	22.9	22.9	59	10.7	1	4	0	0.00	30.189 
18:05	22.5	22.5	22.5	58	10.0	2	7	338	0.00	30.191 
18:10	22.4	22.4	22.4	58	9.9	2	4	292	0.00	30.191 
18:15	22.2	22.2	22.2	57	9.3	1	5	292	0.00	30.194 
18:20	22.1	22.1	22.1	58	9.6	0	2	338	0.00	30.194 
18:25	22.1	22.1	22.1	59	10.0	0	2	338	0.00	30.196 
18:30	21.9	21.9	21.9	60	10.2	1	4	292	0.00	30.198 
18:35	21.8	21.8	21.8	61	10.4	0	1	292	0.00	30.201 
18:40	21.6	21.6	21.6	61	10.3	1	3	315	0.00	30.204 
18:45	21.6	21.6	21.6	61	10.3	1	2	315	0.00	30.205 
18:50	21.3	21.3	21.3	62	10.3	1	4	292	0.00	30.208 
18:55	21.1	21.1	21.1	63	10.5	1	2	292	0.00	30.209 
19:00	21.0	21.0	21.0	63	10.4	1	4	270	0.00	30.213 
19:05	20.8	20.8	20.8	64	10.6	1	4	248	0.00	30.215 
19:10	20.6	20.6	20.6	65	10.7	1	4	338	0.00	30.218 
19:15	20.5	20.5	20.5	65	10.6	1	4	315	0.00	30.220 
19:20	20.5	20.5	20.5	66	11.0	1	4	315	0.00	30.222 
19:25	20.3	20.3	20.3	67	11.1	1	3	315	0.00	30.225 
19:30	20.2	20.2	20.2	67	11.0	1	3	292	0.00	30.226 
19:35	20.0	20.0	20.0	67	10.8	1	4	315	0.00	30.225 
19:40	19.9	19.9	19.9	67	10.7	0	2	315	0.00	30.226 
19:45	19.9	19.9	19.9	66	10.4	1	3	248	0.00	30.229 
19:50	19.7	19.7	19.7	66	10.2	1	5	270	0.00	30.232 
19:55	19.7	19.7	19.7	65	9.9	1	2	270	0.00	30.231 
20:00	19.5	19.5	19.5	65	9.7	0	3	315	0.00	30.230 
20:05	19.4	19.4	19.4	65	9.6	0	2	270	0.00	30.228 
20:10	19.2	19.2	19.2	66	9.7	0	1	270	0.00	30.228 
20:15	19.2	19.2	19.2	65	9.4	0	2	270	0.00	30.227 
20:20	19.1	19.1	19.1	65	9.3	0	2	292	0.00	30.228 
20:25	19.1	19.1	19.1	65	9.3	1	3	270	0.00	30.227 
20:30	18.9	18.9	18.9	65	9.1	0	2	270	0.00	30.228 
20:35	18.8	18.8	18.8	66	9.4	0	2	270	0.00	30.230 
20:40	18.6	18.6	18.6	66	9.2	0	2	270	0.00	30.231 
20:45	18.6	18.6	18.6	66	9.2	0	2	270	0.00	30.232 
20:50	18.4	18.4	18.4	66	9.0	0	1	270	0.00	30.235 
20:55	18.3	18.3	18.3	65	8.5	0	2	270	0.00	30.234 
21:00	18.3	18.3	18.3	65	8.5	0	2	248	0.00	30.234 
21:05	18.3	18.3	18.3	65	8.5	0	2	248	0.00	30.229 
21:10	18.1	18.1	18.1	65	8.3	0	2	338	0.00	30.228 
21:15	18.0	18.0	18.0	65	8.3	0	2	248	0.00	30.226 
21:20	18.0	18.0	18.0	64	7.9	0	2	248	0.00	30.227 
21:25	17.8	17.8	17.8	65	8.1	0	2	248	0.00	30.227 
21:30	17.7	17.7	17.7	65	8.0	0	1	248	0.00	30.229 
21:35	17.5	17.5	17.5	65	7.8	0	1	248	0.00	30.228 
21:40	17.3	17.3	17.3	66	7.9	0	1	248	0.00	30.229 
21:45	17.3	17.3	17.3	66	7.9	0	1	248	0.00	30.231 
21:50	17.5	17.5	17.5	67	8.4	0	1	248	0.00	30.228 
21:55	17.5	17.5	17.5	67	8.4	0	1	248	0.00	30.227 
22:00	17.5	17.5	17.5	67	8.4	0	1	248	0.00	30.225 
22:05	17.5	17.5	17.5	68	8.8	0	1	248	0.00	30.222 
22:10	17.7	17.7	17.7	69	9.3	0	0	---	0.00	30.221 
22:15	17.8	17.8	17.8	68	9.1	0	1	248	0.00	30.219 
22:20	18.1	18.1	18.1	68	9.3	0	2	248	0.00	30.217 
22:25	18.4	18.4	18.4	67	9.3	0	4	248	0.00	30.213 
22:30	18.6	18.6	18.6	67	9.5	0	1	248	0.00	30.212 
22:35	18.6	18.6	18.6	67	9.5	0	1	248	0.00	30.214 
22:40	18.6	18.6	18.6	67	9.5	0	3	248	0.00	30.212 
22:45	18.6	18.6	18.6	67	9.5	0	1	270	0.00	30.213 
22:50	18.8	18.8	18.8	66	9.4	0	2	270	0.00	30.216 
22:55	18.8	18.8	18.8	66	9.4	0	1	270	0.00	30.210 
23:00	18.9	18.9	18.9	66	9.4	0	2	270	0.00	30.213 
23:05	18.8	18.8	18.8	67	9.7	0	2	270	0.00	30.214 
23:10	18.9	18.9	18.9	67	9.8	0	1	270	0.00	30.209 
23:15	18.8	18.8	18.8	67	9.7	0	1	270	0.00	30.214 
23:20	18.6	18.6	18.6	68	9.8	0	1	270	0.00	30.214 
23:25	18.4	18.4	18.4	68	9.6	0	2	270	0.00	30.214 
23:30	18.1	18.1	18.1	69	9.7	0	2	270	0.00	30.208 
23:35	18.0	18.0	18.0	70	9.9	0	1	270	0.00	30.208 
23:40	17.8	17.8	17.8	71	10.0	0	1	270	0.00	30.208 
23:45	17.8	17.8	17.8	72	10.3	0	1	270	0.00	30.204 
23:50	17.8	17.8	17.8	73	10.6	0	1	270	0.00	30.204 
23:55	17.8	17.8	17.8	74	10.9	0	2	270	0.00	30.204 

CoCoRaHS
IN-AL-39
A2 Web Hosting
Creative Commons License
GoDaddy
Look for:

loaded 2017-10-19 19:50:59 • last modified 2010-11-18 10:43:29
Privacy PolicyDisclaimer
• wx.awcolley.com is powered by PmWiki v.2002016 •
• all content (unless otherwise noted) © 2017 A W Colley